Alem Paraiba, Brazil
Current Conditions -  °F | °C
As of 4:00 AM on Thursday 27 Nov 2014 (Local Time) from SBME Reporting Station
Clear Clear  
Wind Chill: 75°   Ceiling: Unl
Heat Index: 75°   Visibility: 6mi
Dew Point: 75°   Wind: 2mph
Humidity: 100%   Direction: 20°NNE
Pressure: 29.77"   Gusts: NA
Location:  21.89°S, 42.7°W
Report Text: SBME 270600Z 02002KT CAVOK 24/24 Q1008
Loading
Personal Weather Stations






























Interactive Weather Map New forecast layout! Learn more

10-Day Weather Forecast

Advertisements
Track Severe Weather on mobile